createdAt,value
2023-01-22T00:00:59.852Z,973.25
2023-01-22T00:01:59.294Z,973.25
2023-01-22T00:02:59.587Z,973.23
2023-01-22T00:03:59.880Z,973.22
2023-01-22T00:05:00.155Z,973.20
2023-01-22T00:06:00.457Z,973.19
2023-01-22T00:07:00.727Z,973.19
2023-01-22T00:08:00.990Z,973.19
2023-01-22T00:09:01.275Z,973.20
2023-01-22T00:10:01.592Z,973.20
2023-01-22T00:11:01.855Z,973.22
2023-01-22T00:12:02.116Z,973.26
2023-01-22T00:13:03.349Z,973.20
2023-01-22T00:14:02.710Z,973.26
2023-01-22T00:15:03.026Z,973.27
2023-01-22T00:16:03.283Z,973.25
2023-01-22T00:17:03.556Z,973.26
2023-01-22T00:18:03.818Z,973.26
2023-01-22T00:19:04.103Z,973.33
2023-01-22T00:20:04.368Z,973.32
2023-01-22T00:21:05.111Z,973.34
2023-01-22T00:22:04.933Z,973.34
2023-01-22T00:23:05.213Z,973.32
2023-01-22T00:24:05.477Z,973.32
2023-01-22T00:25:05.758Z,973.30
2023-01-22T00:26:06.865Z,973.29
2023-01-22T00:27:06.321Z,973.26
2023-01-22T00:28:06.582Z,973.29
2023-01-22T00:29:06.867Z,973.27
2023-01-22T00:30:07.121Z,973.29
2023-01-22T00:31:08.285Z,973.25
2023-01-22T00:32:07.740Z,973.29
2023-01-22T00:33:07.934Z,973.28
2023-01-22T00:34:08.195Z,973.25
2023-01-22T00:35:08.484Z,973.27
2023-01-22T00:36:08.764Z,973.26
2023-01-22T00:37:09.050Z,973.30
2023-01-22T00:38:09.317Z,973.32
2023-01-22T00:39:09.594Z,973.29
2023-01-22T00:40:09.856Z,973.29
2023-01-22T00:41:10.146Z,973.27
2023-01-22T00:42:10.405Z,973.31
2023-01-22T00:43:10.711Z,973.31
2023-01-22T00:44:11.005Z,973.30
2023-01-22T00:45:11.291Z,973.29
2023-01-22T00:46:11.644Z,973.31
2023-01-22T00:47:11.920Z,973.29
2023-01-22T00:48:12.190Z,973.31
2023-01-22T00:49:12.548Z,973.31
2023-01-22T00:50:12.789Z,973.32
2023-01-22T00:51:13.310Z,973.27
2023-01-22T00:52:13.381Z,973.31
2023-01-22T00:53:13.686Z,973.30
2023-01-22T00:54:13.940Z,973.30
2023-01-22T00:55:14.219Z,973.31
2023-01-22T00:56:15.172Z,973.29
2023-01-22T00:57:14.758Z,973.29
2023-01-22T00:58:15.029Z,973.29
2023-01-22T00:59:15.334Z,973.27
2023-01-22T01:00:15.995Z,973.25
2023-01-22T01:01:16.775Z,973.27
2023-01-22T01:02:16.282Z,973.30
2023-01-22T01:03:16.523Z,973.28
2023-01-22T01:04:16.786Z,973.27
2023-01-22T01:05:17.072Z,973.27
2023-01-22T01:06:18.082Z,973.30
2023-01-22T01:07:17.597Z,973.28
2023-01-22T01:08:17.868Z,973.31
2023-01-22T01:09:18.149Z,973.27
2023-01-22T01:10:18.600Z,973.32
2023-01-22T01:11:18.775Z,973.33
2023-01-22T01:12:19.047Z,973.31
2023-01-22T01:13:19.342Z,973.32
2023-01-22T01:14:19.605Z,973.31
2023-01-22T01:15:19.886Z,973.32
2023-01-22T01:16:20.210Z,973.37
2023-01-22T01:17:20.474Z,973.37
2023-01-22T01:18:20.740Z,973.35
2023-01-22T01:19:21.024Z,973.37
2023-01-22T01:20:21.292Z,973.35
2023-01-22T01:21:22.141Z,973.33
2023-01-22T01:22:21.831Z,973.37
2023-01-22T01:23:22.119Z,973.34
2023-01-22T01:24:22.389Z,973.35
2023-01-22T01:25:22.666Z,973.36
2023-01-22T01:26:22.948Z,973.32
2023-01-22T01:27:23.228Z,973.33
2023-01-22T01:28:23.489Z,973.31
2023-01-22T01:29:23.778Z,973.35
2023-01-22T01:30:24.045Z,973.33
2023-01-22T01:31:25.221Z,973.30
2023-01-22T01:32:24.566Z,973.31
2023-01-22T01:33:24.866Z,973.29
2023-01-22T01:34:25.111Z,973.31
2023-01-22T01:35:25.418Z,973.27
2023-01-22T01:36:46.766Z,973.27
2023-01-22T01:37:26.953Z,973.27
2023-01-22T01:38:26.285Z,973.23
2023-01-22T01:39:26.567Z,973.22
2023-01-22T01:40:26.824Z,973.22
2023-01-22T01:41:27.120Z,973.21
2023-01-22T01:42:27.386Z,973.20
2023-01-22T01:43:27.664Z,973.22
2023-01-22T01:44:27.928Z,973.24
2023-01-22T01:45:28.203Z,973.24
2023-01-22T01:46:28.551Z,973.26
2023-01-22T01:47:28.795Z,973.28
2023-01-22T01:48:29.067Z,973.26
2023-01-22T01:49:29.370Z,973.27
2023-01-22T01:50:29.626Z,973.26
2023-01-22T01:51:31.015Z,973.29
2023-01-22T01:52:30.209Z,973.25
2023-01-22T01:53:30.495Z,973.33
2023-01-22T01:54:30.768Z,973.32
2023-01-22T01:55:31.053Z,973.28
2023-01-22T01:56:32.128Z,973.31
2023-01-22T01:57:31.599Z,973.34
2023-01-22T01:58:31.868Z,973.32
2023-01-22T01:59:32.150Z,973.34
2023-01-22T02:00:32.437Z,973.33
2023-01-22T02:01:33.560Z,973.31
2023-01-22T02:02:33.000Z,973.34
2023-01-22T02:03:33.290Z,973.34
2023-01-22T02:04:33.581Z,973.36
2023-01-22T02:05:33.853Z,973.34
2023-01-22T02:06:34.126Z,973.37
2023-01-22T02:07:34.408Z,973.38
2023-01-22T02:08:34.671Z,973.42
2023-01-22T02:09:34.954Z,973.41
2023-01-22T02:10:35.211Z,973.42
2023-01-22T02:11:35.504Z,973.44
2023-01-22T02:12:35.764Z,973.43
2023-01-22T02:13:36.043Z,973.41
2023-01-22T02:14:36.303Z,973.47
2023-01-22T02:15:36.592Z,973.45
2023-01-22T02:16:36.966Z,973.50
2023-01-22T02:17:37.124Z,973.48
2023-01-22T02:18:37.395Z,973.47
2023-01-22T02:19:37.690Z,973.49
2023-01-22T02:20:37.974Z,973.53
2023-01-22T02:21:39.135Z,973.56
2023-01-22T02:22:38.575Z,973.56
2023-01-22T02:23:38.870Z,973.57
2023-01-22T02:24:39.125Z,973.54
2023-01-22T02:25:39.466Z,973.56
2023-01-22T02:26:40.606Z,973.59
2023-01-22T02:27:39.948Z,973.56
2023-01-22T02:28:40.210Z,973.60
2023-01-22T02:29:40.528Z,973.55
2023-01-22T02:30:40.769Z,973.55
2023-01-22T02:31:41.937Z,973.61
2023-01-22T02:32:41.258Z,973.61
2023-01-22T02:33:41.545Z,973.62
2023-01-22T02:34:41.804Z,973.66
2023-01-22T02:35:42.089Z,973.64
2023-01-22T02:36:42.362Z,973.62
2023-01-22T02:37:42.640Z,973.67
2023-01-22T02:38:42.900Z,973.67
2023-01-22T02:39:43.195Z,973.69
2023-01-22T02:40:43.451Z,973.69
2023-01-22T02:41:43.741Z,973.69
2023-01-22T02:42:44.023Z,973.70
2023-01-22T02:43:44.312Z,973.68
2023-01-22T02:44:44.598Z,973.63
2023-01-22T02:45:44.920Z,973.62
2023-01-22T02:46:45.173Z,973.67
2023-01-22T02:47:45.472Z,973.65
2023-01-22T02:48:45.737Z,973.63
2023-01-22T02:49:46.044Z,973.65
2023-01-22T02:50:46.427Z,973.59
2023-01-22T02:51:46.991Z,973.61
2023-01-22T02:52:46.804Z,973.60
2023-01-22T02:53:47.095Z,973.61
2023-01-22T02:54:47.384Z,973.61
2023-01-22T02:55:47.644Z,973.57
2023-01-22T02:56:47.935Z,973.60
2023-01-22T02:57:48.195Z,973.61
2023-01-22T02:58:48.485Z,973.63
2023-01-22T02:59:48.746Z,973.60
2023-01-22T03:00:49.078Z,973.57
2023-01-22T03:01:49.384Z,973.61
2023-01-22T03:02:49.647Z,973.57
2023-01-22T03:03:49.926Z,973.60
2023-01-22T03:04:50.298Z,973.62
2023-01-22T03:05:50.421Z,973.66
2023-01-22T03:06:51.226Z,973.61
2023-01-22T03:07:50.909Z,973.61
2023-01-22T03:08:51.196Z,973.60
2023-01-22T03:09:51.469Z,973.60
2023-01-22T03:10:51.759Z,973.61
2023-01-22T03:11:52.840Z,973.62
2023-01-22T03:12:52.311Z,973.58
2023-01-22T03:13:52.573Z,973.63
2023-01-22T03:14:52.851Z,973.62
2023-01-22T03:15:53.124Z,973.64
2023-01-22T03:16:53.401Z,973.57
2023-01-22T03:17:53.661Z,973.56
2023-01-22T03:18:53.979Z,973.56
2023-01-22T03:19:54.241Z,973.57
2023-01-22T03:20:54.600Z,973.55
2023-01-22T03:21:55.190Z,973.52
2023-01-22T03:22:55.152Z,973.57
2023-01-22T03:23:55.416Z,973.55
2023-01-22T03:24:55.702Z,973.53
2023-01-22T03:25:55.967Z,973.55
2023-01-22T03:26:57.066Z,973.54
2023-01-22T03:27:56.508Z,973.57
2023-01-22T03:28:56.787Z,973.57
2023-01-22T03:29:57.063Z,973.60
2023-01-22T03:30:57.374Z,973.61
2023-01-22T03:31:58.439Z,973.58
2023-01-22T03:32:57.895Z,973.63
2023-01-22T03:33:58.155Z,973.63
2023-01-22T03:34:58.434Z,973.63
2023-01-22T03:35:58.697Z,973.64
2023-01-22T03:36:58.997Z,973.59
2023-01-22T03:37:59.257Z,973.59
2023-01-22T03:38:59.540Z,973.59
2023-01-22T03:39:59.806Z,973.60
2023-01-22T03:41:00.112Z,973.65
2023-01-22T03:42:00.372Z,973.62
2023-01-22T03:43:00.671Z,973.63
2023-01-22T03:44:00.931Z,973.61
2023-01-22T03:45:01.218Z,973.64
2023-01-22T03:46:01.597Z,973.65
2023-01-22T03:47:01.740Z,973.66
2023-01-22T03:48:02.001Z,973.69
2023-01-22T03:49:02.297Z,973.67
2023-01-22T03:50:02.569Z,973.67
2023-01-22T03:51:02.889Z,973.68
2023-01-22T03:52:03.981Z,973.67
2023-01-22T03:53:03.452Z,973.73
2023-01-22T03:54:03.714Z,973.68
2023-01-22T03:55:04.029Z,973.75
2023-01-22T03:56:04.260Z,973.72
2023-01-22T03:57:05.992Z,973.69
2023-01-22T03:58:04.854Z,973.72
2023-01-22T03:59:05.164Z,973.71
2023-01-22T04:00:05.424Z,973.74
2023-01-22T04:01:05.723Z,973.74
2023-01-22T04:02:06.851Z,973.78
2023-01-22T04:03:06.314Z,973.73
2023-01-22T04:04:06.599Z,973.71
2023-01-22T04:05:06.915Z,973.73
2023-01-22T04:06:07.183Z,973.73
2023-01-22T04:07:07.465Z,973.77
2023-01-22T04:08:07.731Z,973.77
2023-01-22T04:09:08.023Z,973.81
2023-01-22T04:10:08.267Z,973.78
2023-01-22T04:11:08.555Z,973.82
2023-01-22T04:12:08.826Z,973.81
2023-01-22T04:13:09.118Z,973.83
2023-01-22T04:14:09.378Z,973.80
2023-01-22T04:15:09.664Z,973.83
2023-01-22T04:16:10.032Z,973.83
2023-01-22T04:17:10.209Z,973.86
2023-01-22T04:18:10.480Z,973.84
2023-01-22T04:19:10.789Z,973.87
2023-01-22T04:20:11.050Z,973.91
2023-01-22T04:21:11.337Z,973.91
2023-01-22T04:22:12.103Z,973.90
2023-01-22T04:23:11.943Z,973.94
2023-01-22T04:24:12.214Z,973.92
2023-01-22T04:25:12.495Z,973.88
2023-01-22T04:26:12.751Z,973.90
2023-01-22T04:27:13.843Z,973.90
2023-01-22T04:28:13.292Z,973.91
2023-01-22T04:29:13.583Z,973.94
2023-01-22T04:30:13.847Z,973.95
2023-01-22T04:31:14.209Z,973.96
2023-01-22T04:32:15.172Z,973.98
2023-01-22T04:33:14.659Z,974.00
2023-01-22T04:34:14.926Z,974.03
2023-01-22T04:35:15.246Z,974.01
2023-01-22T04:36:15.495Z,974.04
2023-01-22T04:37:15.785Z,974.05
2023-01-22T04:38:16.046Z,974.03
2023-01-22T04:39:16.363Z,974.06
2023-01-22T04:40:17.055Z,974.06
2023-01-22T04:41:16.930Z,974.09
2023-01-22T04:42:17.207Z,974.04
2023-01-22T04:43:17.485Z,974.10
2023-01-22T04:44:17.749Z,974.07
2023-01-22T04:45:18.038Z,974.04
2023-01-22T04:46:18.392Z,974.05
2023-01-22T04:47:18.657Z,974.04
2023-01-22T04:48:18.918Z,974.04
2023-01-22T04:49:19.201Z,974.06
2023-01-22T04:50:19.943Z,974.05
2023-01-22T04:51:19.776Z,974.09
2023-01-22T04:52:20.976Z,974.09
2023-01-22T04:53:20.329Z,974.09
2023-01-22T04:54:20.592Z,974.07
2023-01-22T04:55:20.928Z,974.07
2023-01-22T04:56:21.213Z,974.11
2023-01-22T04:57:21.510Z,974.15
2023-01-22T04:58:21.781Z,974.12
2023-01-22T04:59:22.078Z,974.11
2023-01-22T05:00:22.334Z,974.10
2023-01-22T05:01:22.638Z,974.11
2023-01-22T05:02:23.182Z,974.12
2023-01-22T05:03:23.274Z,974.13
2023-01-22T05:04:23.533Z,974.12
2023-01-22T05:05:23.826Z,974.16
2023-01-22T05:06:24.079Z,974.19
2023-01-22T05:07:24.371Z,974.20
2023-01-22T05:08:24.655Z,974.22
2023-01-22T05:09:24.961Z,974.17
2023-01-22T05:10:25.242Z,974.18
2023-01-22T05:11:25.533Z,974.18
2023-01-22T05:12:25.797Z,974.20
2023-01-22T05:13:26.077Z,974.24
2023-01-22T05:14:26.338Z,974.20
2023-01-22T05:15:26.623Z,974.21
2023-01-22T05:16:26.886Z,974.25
2023-01-22T05:17:27.168Z,974.23
2023-01-22T05:18:27.428Z,974.19
2023-01-22T05:19:27.728Z,974.18
2023-01-22T05:20:27.998Z,974.21
2023-01-22T05:21:28.277Z,974.15
2023-01-22T05:22:29.846Z,974.14
2023-01-22T05:23:28.799Z,974.17
2023-01-22T05:24:29.087Z,974.13
2023-01-22T05:25:29.355Z,974.16
2023-01-22T05:26:29.629Z,974.19
2023-01-22T05:27:31.511Z,974.21
2023-01-22T05:28:30.240Z,974.21
2023-01-22T05:29:30.499Z,974.19
2023-01-22T05:30:30.836Z,974.28
2023-01-22T05:31:31.144Z,974.25
2023-01-22T05:32:31.402Z,974.23
2023-01-22T05:33:31.655Z,974.24
2023-01-22T05:34:31.947Z,974.25
2023-01-22T05:35:32.212Z,974.28
2023-01-22T05:36:32.501Z,974.26
2023-01-22T05:37:32.778Z,974.26
2023-01-22T05:38:33.056Z,974.29
2023-01-22T05:39:33.324Z,974.29
2023-01-22T05:40:33.603Z,974.28
2023-01-22T05:41:33.874Z,974.31
2023-01-22T05:42:34.167Z,974.29
2023-01-22T05:43:34.425Z,974.28
2023-01-22T05:44:34.706Z,974.31
2023-01-22T05:45:34.988Z,974.26
2023-01-22T05:46:35.280Z,974.31
2023-01-22T05:47:35.527Z,974.29
2023-01-22T05:48:35.816Z,974.33
2023-01-22T05:49:36.076Z,974.32
2023-01-22T05:50:36.367Z,974.35
2023-01-22T05:51:36.668Z,974.35
2023-01-22T05:52:38.025Z,974.34
2023-01-22T05:53:37.220Z,974.33
2023-01-22T05:54:37.508Z,974.38
2023-01-22T05:55:37.797Z,974.38
2023-01-22T05:56:38.091Z,974.36
2023-01-22T05:57:39.160Z,974.40
2023-01-22T05:58:38.640Z,974.38
2023-01-22T05:59:38.902Z,974.41
2023-01-22T06:00:39.181Z,974.45
2023-01-22T06:01:39.468Z,974.43
2023-01-22T06:02:40.612Z,974.44
2023-01-22T06:03:39.951Z,974.45
2023-01-22T06:04:40.241Z,974.44
2023-01-22T06:05:40.503Z,974.42
2023-01-22T06:06:40.795Z,974.42
2023-01-22T06:07:41.090Z,974.44
2023-01-22T06:08:41.363Z,974.44
2023-01-22T06:09:41.626Z,974.47
2023-01-22T06:10:41.914Z,974.44
2023-01-22T06:11:42.185Z,974.41
2023-01-22T06:12:42.497Z,974.44
2023-01-22T06:13:42.775Z,974.46
2023-01-22T06:14:43.055Z,974.47
2023-01-22T06:15:43.385Z,974.48
2023-01-22T06:16:43.669Z,974.49
2023-01-22T06:17:43.926Z,974.48
2023-01-22T06:18:44.264Z,974.47
2023-01-22T06:19:44.495Z,974.48
2023-01-22T06:20:44.777Z,974.46
2023-01-22T06:21:45.038Z,974.50
2023-01-22T06:22:46.826Z,974.50
2023-01-22T06:23:45.542Z,974.51
2023-01-22T06:24:45.827Z,974.48
2023-01-22T06:25:46.090Z,974.50
2023-01-22T06:26:46.370Z,974.46
2023-01-22T06:27:46.628Z,974.47
2023-01-22T06:28:46.920Z,974.48
2023-01-22T06:29:47.180Z,974.45
2023-01-22T06:30:47.501Z,974.43
2023-01-22T06:31:47.887Z,974.43
2023-01-22T06:32:48.842Z,974.47
2023-01-22T06:33:48.280Z,974.42
2023-01-22T06:34:48.570Z,974.48
2023-01-22T06:35:48.850Z,974.42
2023-01-22T06:36:49.121Z,974.47
2023-01-22T06:37:49.401Z,974.46
2023-01-22T06:38:49.699Z,974.47
2023-01-22T06:39:49.942Z,974.46
2023-01-22T06:40:50.223Z,974.45
2023-01-22T06:41:50.492Z,974.47
2023-01-22T06:42:50.797Z,974.48
2023-01-22T06:43:51.066Z,974.48
2023-01-22T06:44:51.343Z,974.49
2023-01-22T06:45:51.603Z,974.50
2023-01-22T06:46:51.939Z,974.56
2023-01-22T06:47:52.195Z,974.54
2023-01-22T06:48:52.482Z,974.55
2023-01-22T06:49:52.747Z,974.53
2023-01-22T06:50:53.065Z,974.58
2023-01-22T06:51:53.331Z,974.58
2023-01-22T06:52:53.996Z,974.60
2023-01-22T06:53:53.944Z,974.58
2023-01-22T06:54:54.247Z,974.56
2023-01-22T06:55:54.534Z,974.56
2023-01-22T06:56:54.843Z,974.58
2023-01-22T06:57:55.180Z,974.61
2023-01-22T06:58:55.437Z,974.61
2023-01-22T06:59:55.648Z,974.62
2023-01-22T07:00:55.949Z,974.68
2023-01-22T07:01:56.270Z,974.65
2023-01-22T07:02:57.211Z,974.66
2023-01-22T07:03:56.847Z,974.66
2023-01-22T07:04:57.167Z,974.70
2023-01-22T07:05:57.421Z,974.73
2023-01-22T07:06:57.720Z,974.69
2023-01-22T07:07:58.000Z,974.77
2023-01-22T07:08:58.301Z,974.74
2023-01-22T07:09:58.581Z,974.79
2023-01-22T07:10:58.857Z,974.84
2023-01-22T07:11:59.163Z,974.83
2023-01-22T07:13:00.168Z,974.83
2023-01-22T07:13:59.771Z,974.83
2023-01-22T07:15:00.047Z,974.84
2023-01-22T07:16:00.356Z,974.87
2023-01-22T07:17:00.631Z,974.89
2023-01-22T07:18:00.950Z,974.90
2023-01-22T07:19:01.229Z,974.91
2023-01-22T07:20:01.596Z,974.87
2023-01-22T07:21:01.734Z,974.90
2023-01-22T07:22:02.049Z,974.95
2023-01-22T07:23:05.588Z,974.93
2023-01-22T07:24:02.606Z,975.00
2023-01-22T07:25:02.895Z,975.00
2023-01-22T07:26:03.206Z,974.99
2023-01-22T07:27:03.504Z,974.97
2023-01-22T07:28:03.817Z,975.02
2023-01-22T07:29:04.117Z,975.03
2023-01-22T07:30:04.435Z,975.04
2023-01-22T07:31:04.833Z,975.05
2023-01-22T07:32:04.995Z,975.05
2023-01-22T07:33:05.280Z,975.07
2023-01-22T07:34:05.610Z,975.07
2023-01-22T07:35:05.906Z,975.03
2023-01-22T07:36:06.271Z,975.11
2023-01-22T07:37:06.519Z,975.08
2023-01-22T07:38:06.835Z,975.09
2023-01-22T07:39:07.140Z,975.13
2023-01-22T07:40:07.446Z,975.17
2023-01-22T07:41:20.266Z,975.14
2023-01-22T07:42:09.020Z,975.16
2023-01-22T07:43:08.284Z,975.15
2023-01-22T07:44:08.590Z,975.20
2023-01-22T07:45:08.883Z,975.19
2023-01-22T07:46:09.308Z,975.22
2023-01-22T07:47:09.479Z,975.25
2023-01-22T07:48:09.792Z,975.23
2023-01-22T07:49:10.081Z,975.27
2023-01-22T07:50:10.392Z,975.22
2023-01-22T07:51:10.722Z,975.25
2023-01-22T07:52:11.027Z,975.29
2023-01-22T07:53:11.982Z,975.26
2023-01-22T07:54:11.605Z,975.34
2023-01-22T07:55:11.916Z,975.32
2023-01-22T07:56:12.227Z,975.31
2023-01-22T07:57:12.525Z,975.35
2023-01-22T07:58:13.994Z,975.31
2023-01-22T07:59:13.100Z,975.32
2023-01-22T08:00:13.414Z,975.31
2023-01-22T08:01:13.717Z,975.35
2023-01-22T08:02:14.046Z,975.33
2023-01-22T08:03:15.117Z,975.34
2023-01-22T08:04:14.607Z,975.38
2023-01-22T08:05:14.958Z,975.38
2023-01-22T08:06:15.275Z,975.41
2023-01-22T08:07:15.577Z,975.36
2023-01-22T08:08:15.902Z,975.43
2023-01-22T08:09:16.209Z,975.45
2023-01-22T08:10:16.662Z,975.46
2023-01-22T08:11:16.751Z,975.44
2023-01-22T08:12:17.059Z,975.43
2023-01-22T08:13:17.350Z,975.45
2023-01-22T08:14:17.663Z,975.46
2023-01-22T08:15:17.969Z,975.49
2023-01-22T08:16:18.307Z,975.48
2023-01-22T08:17:18.583Z,975.49
2023-01-22T08:18:20.898Z,975.49
2023-01-22T08:19:19.152Z,975.51
2023-01-22T08:20:19.763Z,975.52
2023-01-22T08:21:19.712Z,975.56
2023-01-22T08:22:20.030Z,975.53
2023-01-22T08:23:21.922Z,975.55
2023-01-22T08:24:20.679Z,975.54
2023-01-22T08:25:20.976Z,975.56
2023-01-22T08:26:21.297Z,975.61
2023-01-22T08:27:21.594Z,975.60
2023-01-22T08:28:22.376Z,975.58
2023-01-22T08:29:22.214Z,975.63
2023-01-22T08:30:22.532Z,975.67
2023-01-22T08:31:28.262Z,975.66
2023-01-22T08:32:24.136Z,975.68
2023-01-22T08:33:23.376Z,975.69
2023-01-22T08:34:23.688Z,975.72
2023-01-22T08:35:24.605Z,975.72
2023-01-22T08:36:24.261Z,975.72
2023-01-22T08:37:24.548Z,975.74
2023-01-22T08:38:24.865Z,975.80
2023-01-22T08:39:25.149Z,975.79
2023-01-22T08:40:25.552Z,975.79
2023-01-22T08:41:25.697Z,975.79
2023-01-22T08:42:26.008Z,975.82
2023-01-22T08:43:26.313Z,975.82
2023-01-22T08:44:26.622Z,975.78
2023-01-22T08:45:26.968Z,975.81
2023-01-22T08:46:27.282Z,975.80
2023-01-22T08:47:27.575Z,975.78
2023-01-22T08:48:27.887Z,975.82
2023-01-22T08:49:28.200Z,975.82
2023-01-22T08:50:28.525Z,975.85
2023-01-22T08:51:28.811Z,975.83
2023-01-22T08:52:29.129Z,975.83
2023-01-22T08:53:29.422Z,975.87
2023-01-22T08:54:29.731Z,975.85
2023-01-22T08:55:30.023Z,975.80
2023-01-22T08:56:30.341Z,975.81
2023-01-22T08:57:30.643Z,975.79
2023-01-22T08:58:30.961Z,975.78
2023-01-22T08:59:31.369Z,975.79
2023-01-22T09:00:31.517Z,975.82
2023-01-22T09:01:31.815Z,975.82
2023-01-22T09:02:32.175Z,975.83
2023-01-22T09:03:32.495Z,975.86
2023-01-22T09:04:32.776Z,975.83
2023-01-22T09:05:33.067Z,975.85
2023-01-22T09:06:33.395Z,975.86
2023-01-22T09:07:33.685Z,975.84
2023-01-22T09:08:34.025Z,975.84
2023-01-22T09:09:34.316Z,975.86
2023-01-22T09:10:34.639Z,975.85
2023-01-22T09:11:34.945Z,975.85
2023-01-22T09:12:35.258Z,975.85
2023-01-22T09:13:35.570Z,975.87
2023-01-22T09:14:35.886Z,975.89
2023-01-22T09:15:36.178Z,975.93
2023-01-22T09:16:36.504Z,975.93
2023-01-22T09:17:36.815Z,975.96
2023-01-22T09:18:37.119Z,975.94
2023-01-22T09:19:37.440Z,975.94
2023-01-22T09:20:37.748Z,975.92
2023-01-22T09:21:38.054Z,975.96
2023-01-22T09:22:38.373Z,975.91
2023-01-22T09:23:38.660Z,975.91
2023-01-22T09:24:38.969Z,975.89
2023-01-22T09:25:39.261Z,975.89
2023-01-22T09:26:39.571Z,975.90
2023-01-22T09:27:39.878Z,975.86
2023-01-22T09:28:40.204Z,975.87
2023-01-22T09:29:40.500Z,975.90
2023-01-22T09:30:40.864Z,975.93
2023-01-22T09:31:41.138Z,975.95
2023-01-22T09:32:41.468Z,975.94
2023-01-22T09:33:41.753Z,975.95
2023-01-22T09:34:42.071Z,975.98
2023-01-22T09:35:42.365Z,975.98
2023-01-22T09:36:42.675Z,975.96
2023-01-22T09:37:42.957Z,975.98
2023-01-22T09:38:43.737Z,975.94
2023-01-22T09:39:43.586Z,975.99
2023-01-22T09:40:43.903Z,976.02
2023-01-22T09:41:44.206Z,975.99
2023-01-22T09:42:44.518Z,975.98
2023-01-22T09:43:44.816Z,975.93
2023-01-22T09:44:45.125Z,975.96
2023-01-22T09:45:45.462Z,975.94
2023-01-22T09:46:45.778Z,976.00
2023-01-22T09:47:46.072Z,975.97
2023-01-22T09:48:46.377Z,975.99
2023-01-22T09:49:46.670Z,976.00
2023-01-22T09:50:47.099Z,976.00
2023-01-22T09:51:47.273Z,976.04
2023-01-22T09:52:47.583Z,976.00
2023-01-22T09:53:47.884Z,975.98
2023-01-22T09:54:48.216Z,976.02
2023-01-22T09:55:48.510Z,976.03
2023-01-22T09:56:48.819Z,976.02
2023-01-22T09:57:49.099Z,976.00
2023-01-22T09:58:49.416Z,975.97
2023-01-22T09:59:49.726Z,975.97
2023-01-22T10:00:50.132Z,975.98
2023-01-22T10:01:50.290Z,975.97
2023-01-22T10:02:50.612Z,975.98
2023-01-22T10:03:50.903Z,976.02
2023-01-22T10:04:51.220Z,975.97
2023-01-22T10:05:51.513Z,975.95
2023-01-22T10:06:51.830Z,976.00
2023-01-22T10:07:52.124Z,975.96
2023-01-22T10:08:52.434Z,975.92
2023-01-22T10:09:52.723Z,975.94
2023-01-22T10:10:53.043Z,975.96
2023-01-22T10:11:53.337Z,975.97
2023-01-22T10:12:53.644Z,975.96
2023-01-22T10:13:53.945Z,976.00
2023-01-22T10:14:54.264Z,975.97
2023-01-22T10:15:54.558Z,975.96
2023-01-22T10:16:54.946Z,975.96
2023-01-22T10:17:55.075Z,975.96
2023-01-22T10:18:56.899Z,975.97
2023-01-22T10:19:55.653Z,975.96
2023-01-22T10:20:55.978Z,975.96
2023-01-22T10:21:56.282Z,975.97
2023-01-22T10:22:56.585Z,975.96
2023-01-22T10:23:56.882Z,975.95
2023-01-22T10:24:57.199Z,975.95
2023-01-22T10:25:57.487Z,975.95
2023-01-22T10:26:57.798Z,975.94
2023-01-22T10:27:58.104Z,975.87
2023-01-22T10:28:58.427Z,975.91
2023-01-22T10:29:58.718Z,975.91
2023-01-22T10:30:59.274Z,975.90
2023-01-22T10:31:59.479Z,975.90
2023-01-22T10:32:59.638Z,975.92
2023-01-22T10:33:59.930Z,975.93
2023-01-22T10:35:00.240Z,975.90
2023-01-22T10:36:00.536Z,975.92
2023-01-22T10:37:00.856Z,975.93
2023-01-22T10:38:01.156Z,975.89
2023-01-22T10:39:01.474Z,975.95
2023-01-22T10:40:01.767Z,975.91
2023-01-22T10:41:02.100Z,975.92
2023-01-22T10:42:02.396Z,975.89
2023-01-22T10:43:02.702Z,975.93
2023-01-22T10:44:03.001Z,975.91
2023-01-22T10:45:03.312Z,975.87
2023-01-22T10:46:03.652Z,975.94
2023-01-22T10:47:03.951Z,975.96
2023-01-22T10:48:04.275Z,975.95
2023-01-22T10:49:05.015Z,975.96
2023-01-22T10:50:05.000Z,975.98
2023-01-22T10:51:05.191Z,976.00
2023-01-22T10:52:05.472Z,975.99
2023-01-22T10:53:05.788Z,975.96
2023-01-22T10:54:06.088Z,975.95
2023-01-22T10:55:06.419Z,976.00
2023-01-22T10:56:06.687Z,976.00
2023-01-22T10:57:06.937Z,976.04
2023-01-22T10:58:07.187Z,976.05
2023-01-22T10:59:07.584Z,976.05
2023-01-22T11:00:07.731Z,976.05
2023-01-22T11:01:08.057Z,976.05
2023-01-22T11:02:08.347Z,976.03
2023-01-22T11:03:08.659Z,976.04
2023-01-22T11:04:08.959Z,976.01
2023-01-22T11:05:09.278Z,976.02
2023-01-22T11:06:09.571Z,976.01
2023-01-22T11:07:09.880Z,975.96
2023-01-22T11:08:10.190Z,976.02
2023-01-22T11:09:10.512Z,975.95
2023-01-22T11:10:10.810Z,975.94
2023-01-22T11:11:11.115Z,975.96
2023-01-22T11:12:11.402Z,975.96
2023-01-22T11:13:11.725Z,975.93
2023-01-22T11:14:12.027Z,975.92
2023-01-22T11:15:12.348Z,975.91
2023-01-22T11:16:12.733Z,975.88
2023-01-22T11:17:13.007Z,975.89
2023-01-22T11:18:13.316Z,975.90
2023-01-22T11:19:13.636Z,975.94
2023-01-22T11:20:13.934Z,975.90
2023-01-22T11:21:14.277Z,975.90
2023-01-22T11:22:14.563Z,975.91
2023-01-22T11:23:14.880Z,975.91
2023-01-22T11:24:15.163Z,975.91
2023-01-22T11:25:15.486Z,975.91
2023-01-22T11:26:15.776Z,975.87
2023-01-22T11:27:16.088Z,975.91
2023-01-22T11:28:16.406Z,975.86
2023-01-22T11:29:16.707Z,975.89
2023-01-22T11:30:19.728Z,975.89
2023-01-22T11:31:17.338Z,975.85
2023-01-22T11:32:17.503Z,975.87
2023-01-22T11:33:17.788Z,975.88
2023-01-22T11:34:18.108Z,975.88
2023-01-22T11:35:18.400Z,975.89
2023-01-22T11:36:18.739Z,975.84
2023-01-22T11:37:19.030Z,975.85
2023-01-22T11:38:19.349Z,975.85
2023-01-22T11:39:19.652Z,975.85
2023-01-22T11:40:20.467Z,975.79
2023-01-22T11:41:20.236Z,975.81
2023-01-22T11:42:20.579Z,975.81
2023-01-22T11:43:20.830Z,975.78
2023-01-22T11:44:21.152Z,975.81
2023-01-22T11:45:21.452Z,975.83
2023-01-22T11:46:21.890Z,975.82
2023-01-22T11:47:22.048Z,975.81
2023-01-22T11:48:22.358Z,975.79
2023-01-22T11:49:22.653Z,975.79
2023-01-22T11:50:22.964Z,975.78
2023-01-22T11:51:23.395Z,975.81
2023-01-22T11:52:23.614Z,975.78
2023-01-22T11:53:23.907Z,975.80
2023-01-22T11:54:24.225Z,975.81
2023-01-22T11:55:24.519Z,975.80
2023-01-22T11:56:24.853Z,975.78
2023-01-22T11:57:25.137Z,975.78
2023-01-22T11:58:25.451Z,975.76
2023-01-22T11:59:25.789Z,975.77
2023-01-22T12:00:26.095Z,975.77
2023-01-22T12:01:26.384Z,975.80
2023-01-22T12:02:26.728Z,975.78
2023-01-22T12:03:27.031Z,975.78
2023-01-22T12:04:27.315Z,975.82
2023-01-22T12:05:29.412Z,975.81
2023-01-22T12:06:27.945Z,975.79
2023-01-22T12:07:28.238Z,975.80
2023-01-22T12:08:28.558Z,975.79
2023-01-22T12:09:28.868Z,975.80
2023-01-22T12:10:29.198Z,975.79
2023-01-22T12:11:29.507Z,975.81
2023-01-22T12:12:29.807Z,975.83
2023-01-22T12:13:30.133Z,975.86
2023-01-22T12:14:30.448Z,975.83
2023-01-22T12:15:30.738Z,975.83
2023-01-22T12:16:31.054Z,975.81
2023-01-22T12:17:31.356Z,975.84
2023-01-22T12:18:31.681Z,975.86
2023-01-22T12:19:31.979Z,975.84
2023-01-22T12:20:32.327Z,975.85
2023-01-22T12:21:32.613Z,975.84
2023-01-22T12:22:32.923Z,975.88
2023-01-22T12:23:33.214Z,975.93
2023-01-22T12:24:33.536Z,975.86
2023-01-22T12:25:33.829Z,975.89
2023-01-22T12:26:34.141Z,975.86
2023-01-22T12:27:34.437Z,975.88
2023-01-22T12:28:34.749Z,975.89
2023-01-22T12:29:35.043Z,975.91
2023-01-22T12:30:35.385Z,975.88
2023-01-22T12:31:35.696Z,975.93
2023-01-22T12:32:35.975Z,975.89